Time;durP1;ratioP1;P1;durP2;ratioP2;P2;SDS_P1;SDS_P2;PMS_P1;PMS_P2;Temp;Humidity;BMP_temperature;BMP_pressure;BME280_temperature;BME280_humidity;BME280_pressure;Samples;Min_cycle;Max_cycle;Signal;HPM_P1;HPM_P2
2022/07/10 00:02:17;;;;;;;0.63;0.63;;;;;;;19.29;70.87;95923.06;4329870;32;20192;-66
2022/07/10 00:04:44;;;;;;;0.67;0.67;;;;;;;19.35;69.63;95929.78;4344928;32;20242;-66
2022/07/10 00:07:20;;;;;;;0.30;0.30;;;;;;;19.30;69.45;95937.31;4344316;32;20243;-66
2022/07/10 00:09:47;;;;;;;0.47;0.47;;;;;;;19.41;69.96;95939.22;4344116;32;20287;-66
2022/07/10 00:12:14;;;;;;;0.57;0.57;;;;;;;19.39;69.96;95943.38;4368673;32;20220;-65
2022/07/10 00:14:39;;;;;;;0.80;0.80;;;;;;;19.33;70.57;95937.41;4347474;32;20211;-66
2022/07/10 00:17:06;;;;;;;0.70;0.70;;;;;;;19.31;70.54;95934.28;4337918;32;20197;-66
2022/07/10 00:19:33;;;;;;;1.13;1.13;;;;;;;19.31;70.87;95944.25;4351201;32;20229;-65
2022/07/10 00:22:03;;;;;;;0.40;0.40;;;;;;;19.27;70.80;95933.38;4346674;32;20201;-66
2022/07/10 00:24:29;;;;;;;0.67;0.67;;;;;;;19.28;70.02;95936.84;4322072;32;20193;-66
2022/07/10 00:26:56;;;;;;;0.60;0.60;;;;;;;19.14;70.33;95937.94;4356238;32;20223;-66
2022/07/10 00:29:22;;;;;;;0.93;0.93;;;;;;;19.25;69.38;95945.59;4360138;32;20193;-66
2022/07/10 00:31:51;;;;;;;4.87;1.37;;;;;;;19.12;69.55;95950.91;4350166;32;20189;-66
2022/07/10 00:34:17;;;;;;;0.90;0.90;;;;;;;19.00;70.54;95969.72;4370037;32;20226;-65
2022/07/10 00:36:44;;;;;;;0.50;0.50;;;;;;;18.82;71.49;95971.00;4366945;32;20290;-65
2022/07/10 00:39:14;;;;;;;2.83;1.33;;;;;;;18.75;72.33;95966.12;4358441;32;20193;-66
2022/07/10 00:41:39;;;;;;;1.00;1.00;;;;;;;18.65;73.97;95971.94;4361345;32;20235;-66
2022/07/10 00:44:09;;;;;;;0.70;0.70;;;;;;;18.59;76.07;95975.91;4340541;32;20201;-66
2022/07/10 00:46:35;;;;;;;0.93;0.93;;;;;;;18.39;77.51;95973.97;4323311;32;20197;-65
2022/07/10 00:49:04;;;;;;;0.63;0.63;;;;;;;18.16;79.46;95976.19;4333890;32;20288;-65
2022/07/10 00:51:51;;;;;;;0.80;0.80;;;;;;;18.12;80.14;95980.62;4280803;32;20297;-66
2022/07/10 00:54:22;;;;;;;0.90;0.90;;;;;;;18.04;80.54;95984.94;4341517;32;20192;-67
2022/07/10 00:56:49;;;;;;;1.37;1.27;;;;;;;18.06;81.64;95969.31;4347748;32;20236;-66
2022/07/10 00:59:17;;;;;;;1.40;1.40;;;;;;;17.90;83.29;95956.72;4355794;32;20212;-67
2022/07/10 01:01:48;;;;;;;2.10;1.00;;;;;;;17.89;82.96;95960.53;4357635;32;20215;-67
2022/07/10 01:04:18;;;;;;;1.50;1.40;;;;;;;17.79;83.64;95959.00;4345996;32;20244;-67
2022/07/10 01:06:46;;;;;;;1.83;1.60;;;;;;;17.70;84.03;95952.88;4333943;32;20200;-66
2022/07/10 01:09:13;;;;;;;1.20;1.20;;;;;;;17.75;83.24;95966.12;4345733;32;20212;-67
2022/07/10 01:11:42;;;;;;;1.00;1.00;;;;;;;17.82;82.78;95961.84;4358546;32;20193;-67
2022/07/10 01:14:08;;;;;;;0.70;0.70;;;;;;;17.86;82.16;95961.97;4343163;32;20204;-67
2022/07/10 01:16:33;;;;;;;1.13;1.13;;;;;;;17.87;82.42;95956.25;4367306;32;20189;-67
2022/07/10 01:18:59;;;;;;;1.07;1.07;;;;;;;17.81;83.43;95959.47;4341592;32;20197;-67
2022/07/10 01:21:36;;;;;;;0.93;0.93;;;;;;;17.81;83.19;95962.94;4354021;32;20197;-67
2022/07/10 01:24:11;;;;;;;0.97;0.97;;;;;;;17.99;82.18;95960.16;4348749;32;20196;-67
2022/07/10 01:26:42;;;;;;;4.87;1.80;;;;;;;17.82;82.81;95948.41;4354261;32;20193;-67
2022/07/10 01:29:11;;;;;;;0.60;0.60;;;;;;;17.84;83.63;95954.25;4325003;32;20208;-67
2022/07/10 01:31:39;;;;;;;0.73;0.73;;;;;;;17.77;82.89;95947.81;4333333;32;20189;-67
2022/07/10 01:34:10;;;;;;;1.20;1.10;;;;;;;17.71;83.42;95949.88;4358770;32;20200;-67
2022/07/10 01:36:37;;;;;;;1.20;1.20;;;;;;;17.67;83.22;95940.88;4327207;32;20321;-66
2022/07/10 01:39:16;;;;;;;1.00;1.00;;;;;;;17.62;83.51;95935.69;4350059;32;20215;-66
2022/07/10 01:41:41;;;;;;;0.37;0.37;;;;;;;17.51;83.26;95935.25;4334723;32;20217;-67
2022/07/10 01:44:08;;;;;;;1.27;1.27;;;;;;;17.52;83.67;95938.72;4319936;32;20206;-66
2022/07/10 01:46:34;;;;;;;0.93;0.93;;;;;;;17.61;83.14;95933.34;4355678;32;20193;-66
2022/07/10 01:49:01;;;;;;;0.70;0.70;;;;;;;17.59;83.94;95941.69;4276926;32;20297;-67
2022/07/10 01:51:27;;;;;;;0.77;0.70;;;;;;;17.57;84.93;95933.19;4332637;32;20269;-66
2022/07/10 01:53:55;;;;;;;1.00;1.00;;;;;;;17.59;84.10;95930.19;4337447;32;20193;-66
2022/07/10 01:56:22;;;;;;;0.70;0.70;;;;;;;17.72;84.10;95929.97;4356135;32;20197;-66
2022/07/10 01:58:49;;;;;;;0.63;0.63;;;;;;;17.47;85.70;95920.12;4320940;32;20201;-67
2022/07/10 02:01:15;;;;;;;1.00;1.00;;;;;;;17.47;85.30;95917.44;4360559;32;20189;-66
2022/07/10 02:06:29;;;;;;;0.90;0.90;;;;;;;17.35;86.83;95912.75;4361980;32;20207;-66
2022/07/10 02:08:54;;;;;;;0.87;0.80;;;;;;;17.50;86.07;95916.78;4337189;32;20216;-67
2022/07/10 02:11:21;;;;;;;0.97;0.97;;;;;;;17.47;86.58;95917.44;4326523;32;20197;-67
2022/07/10 02:13:46;;;;;;;0.67;0.67;;;;;;;17.52;86.37;95914.56;4347090;32;20289;-66
2022/07/10 02:16:11;;;;;;;1.40;1.33;;;;;;;17.49;86.15;95904.50;4359048;32;20241;-66
2022/07/10 02:18:39;;;;;;;0.83;0.83;;;;;;;17.45;86.46;95903.59;4329819;32;20217;-66
2022/07/10 02:21:08;;;;;;;1.23;1.23;;;;;;;17.55;85.94;95905.88;4320864;32;20235;-66
2022/07/10 02:23:35;;;;;;;0.83;0.83;;;;;;;17.42;86.94;95914.94;4350572;32;20246;-67
2022/07/10 02:26:02;;;;;;;0.80;0.80;;;;;;;17.53;86.06;95913.47;4327660;32;20281;-66
2022/07/10 02:28:32;;;;;;;0.70;0.70;;;;;;;17.52;86.36;95911.91;4335113;32;20251;-66
2022/07/10 02:30:59;;;;;;;0.50;0.50;;;;;;;17.59;87.15;95909.50;4360585;32;20248;-66
2022/07/10 02:33:25;;;;;;;1.00;1.00;;;;;;;17.47;86.56;95906.69;4323352;32;20286;-66
2022/07/10 02:35:52;;;;;;;0.80;0.80;;;;;;;17.39;87.80;95904.84;4342395;32;20181;-67
2022/07/10 02:38:19;;;;;;;0.77;0.77;;;;;;;17.39;87.30;95905.66;4332214;32;20208;-67
2022/07/10 02:40:45;;;;;;;0.90;0.90;;;;;;;17.42;87.26;95899.63;4334332;32;20197;-66
2022/07/10 02:43:20;;;;;;;1.00;1.00;;;;;;;17.41;87.21;95902.66;4356322;32;20238;-67
2022/07/10 02:45:47;;;;;;;0.90;0.90;;;;;;;17.23;87.86;95901.94;4358195;32;20254;-67
2022/07/10 02:48:17;;;;;;;1.10;1.10;;;;;;;17.28;87.50;95907.09;4353766;32;20211;-66
2022/07/10 02:50:43;;;;;;;0.90;0.90;;;;;;;17.32;87.83;95913.41;4345195;32;20216;-67
2022/07/10 02:53:10;;;;;;;1.43;1.33;;;;;;;17.42;88.31;95909.59;4358856;32;20196;-67
2022/07/10 02:55:36;;;;;;;0.50;0.50;;;;;;;17.37;87.38;95907.06;4373490;32;20197;-67
2022/07/10 02:58:03;;;;;;;1.37;1.37;;;;;;;17.39;87.03;95905.66;4363689;32;20216;-67
2022/07/10 03:00:31;;;;;;;1.63;1.40;;;;;;;17.10;89.51;95908.25;4377795;32;20308;-67
2022/07/10 03:02:58;;;;;;;1.00;1.00;;;;;;;17.14;89.11;95904.62;4364270;32;20184;-67
2022/07/10 03:05:23;;;;;;;0.93;0.93;;;;;;;17.24;88.44;95908.09;4338924;32;20208;-67
2022/07/10 03:07:50;;;;;;;1.03;1.03;;;;;;;17.18;88.35;95913.63;4362147;32;20230;-67
2022/07/10 03:10:17;;;;;;;0.90;0.90;;;;;;;17.14;88.36;95910.00;4361683;32;20201;-67
2022/07/10 03:12:43;;;;;;;0.67;0.67;;;;;;;17.18;88.25;95908.25;4372779;32;20230;-67
2022/07/10 03:15:09;;;;;;;1.40;1.37;;;;;;;17.15;89.12;95902.72;4359418;32;20192;-67
2022/07/10 03:17:36;;;;;;;0.97;0.97;;;;;;;17.17;88.71;95904.00;4309787;32;20299;-67
2022/07/10 03:20:04;;;;;;;0.93;0.90;;;;;;;17.18;88.42;95905.56;4346604;32;20208;-67
2022/07/10 03:22:32;;;;;;;0.90;0.90;;;;;;;17.13;88.71;95913.78;4350527;32;20219;-67
2022/07/10 03:24:59;;;;;;;0.53;0.53;;;;;;;17.02;89.28;95904.50;4355041;32;20200;-66
2022/07/10 03:27:26;;;;;;;0.97;0.97;;;;;;;16.90;89.68;95900.91;4318492;32;20243;-67
2022/07/10 03:29:51;;;;;;;1.00;1.00;;;;;;;16.76;90.35;95893.06;4340968;32;20286;-66
2022/07/10 03:32:16;;;;;;;7.53;1.20;;;;;;;16.88;89.37;95906.56;4323642;32;20203;-67
2022/07/10 03:34:42;;;;;;;0.80;0.80;;;;;;;16.98;90.10;95903.56;4333045;32;20197;-66
2022/07/10 03:37:12;;;;;;;0.93;0.93;;;;;;;16.83;90.41;95898.72;4334691;32;20255;-67
2022/07/10 03:39:42;;;;;;;1.17;1.17;;;;;;;16.88;90.14;95909.25;4369544;32;20214;-67
2022/07/10 03:42:14;;;;;;;0.97;0.97;;;;;;;17.04;89.45;95910.31;4320163;32;20247;-67
2022/07/10 03:44:42;;;;;;;0.93;0.93;;;;;;;17.10;88.33;95911.72;4343895;32;20208;-67
2022/07/10 03:47:08;;;;;;;0.80;0.80;;;;;;;17.00;89.90;95913.97;4365867;32;20212;-67
2022/07/10 03:49:34;;;;;;;1.33;1.33;;;;;;;16.96;89.62;95915.72;4350074;32;20272;-67
2022/07/10 03:52:01;;;;;;;1.20;1.20;;;;;;;16.77;90.54;95906.13;4359797;32;20229;-67
2022/07/10 03:54:39;;;;;;;1.20;1.20;;;;;;;16.60;91.42;95913.38;4341315;32;20270;-67
2022/07/10 03:59:51;;;;;;;0.97;0.97;;;;;;;16.86;90.38;95913.34;4377017;32;20254;-67
2022/07/10 04:02:23;;;;;;;1.30;1.30;;;;;;;16.71;91.57;95901.25;4331888;32;20235;-67
2022/07/10 04:04:50;;;;;;;9.43;2.40;;;;;;;16.69;91.38;95909.59;4352084;32;20256;-67
2022/07/10 04:07:20;;;;;;;1.00;1.00;;;;;;;16.70;91.39;95905.81;4350630;32;20256;-66
2022/07/10 04:09:47;;;;;;;1.20;1.10;;;;;;;16.82;90.75;95905.97;4357115;32;20258;-67
2022/07/10 04:12:13;;;;;;;1.53;1.50;;;;;;;16.82;90.28;95902.50;4317840;32;20284;-67
2022/07/10 04:14:41;;;;;;;0.60;0.60;;;;;;;16.83;90.23;95906.78;4345959;32;20200;-65
2022/07/10 04:17:09;;;;;;;1.30;1.20;;;;;;;16.77;91.11;95902.66;4362398;32;20197;-65
2022/07/10 04:19:34;;;;;;;0.60;0.60;;;;;;;16.89;90.70;95908.16;4359300;32;20284;-65
2022/07/10 04:22:00;;;;;;;1.13;1.13;;;;;;;16.82;91.02;95905.19;4370313;32;22354;-66
2022/07/10 04:24:30;;;;;;;0.73;0.73;;;;;;;16.97;89.21;95906.56;4357398;32;20251;-66
2022/07/10 04:26:59;;;;;;;1.10;1.10;;;;;;;16.93;89.46;95908.31;4324403;32;20205;-66
2022/07/10 04:29:24;;;;;;;1.07;1.07;;;;;;;16.85;90.10;95899.16;4322433;32;20208;-65
2022/07/10 04:31:52;;;;;;;1.33;1.33;;;;;;;16.93;89.71;95901.06;4327843;32;20192;-65
2022/07/10 04:34:18;;;;;;;1.60;1.57;;;;;;;16.98;89.46;95889.38;4346193;32;20212;-65
2022/07/10 04:36:48;;;;;;;0.90;0.90;;;;;;;16.96;89.95;95891.59;4347660;32;20193;-65
2022/07/10 04:39:13;;;;;;;0.97;0.97;;;;;;;16.94;89.44;95894.59;4347874;32;20189;-66
2022/07/10 04:41:41;;;;;;;1.00;1.00;;;;;;;16.96;88.64;95895.06;4371649;32;20207;-66
2022/07/10 04:44:07;;;;;;;1.13;1.13;;;;;;;17.00;89.34;95904.03;4310313;32;20270;-65
2022/07/10 04:46:37;;;;;;;1.67;1.50;;;;;;;16.90;90.17;95899.00;4361740;32;20291;-65
2022/07/10 04:49:07;;;;;;;1.10;1.10;;;;;;;17.04;89.48;95899.59;4339088;32;20208;-65
2022/07/10 04:51:33;;;;;;;1.23;1.23;;;;;;;17.03;89.59;95898.06;4315262;32;20368;-65
2022/07/10 04:54:00;;;;;;;1.47;1.37;;;;;;;17.01;89.62;95899.47;4337523;32;20214;-65
2022/07/10 04:56:27;;;;;;;1.13;1.13;;;;;;;16.93;89.62;95908.31;4345588;32;20398;-65
2022/07/10 04:58:55;;;;;;;1.33;1.33;;;;;;;16.87;89.81;95905.00;4353655;32;20240;-65
2022/07/10 05:01:22;;;;;;;0.83;0.83;;;;;;;16.91;90.18;95905.94;4349685;32;20199;-65
2022/07/10 05:03:47;;;;;;;1.10;1.10;;;;;;;16.84;90.03;95914.47;4352999;32;20241;-65
2022/07/10 05:06:14;;;;;;;1.17;1.17;;;;;;;16.88;89.89;95911.16;4380885;32;20255;-65
2022/07/10 05:08:39;;;;;;;1.67;1.57;;;;;;;16.95;88.33;95912.25;4353825;32;20222;-65
2022/07/10 05:11:09;;;;;;;0.80;0.80;;;;;;;17.02;88.55;95915.25;4343901;32;20230;-66
2022/07/10 05:13:44;;;;;;;1.40;1.40;;;;;;;17.05;88.64;95919.16;4341246;32;20200;-65
2022/07/10 05:16:10;;;;;;;0.87;0.87;;;;;;;16.96;89.20;95926.44;4357495;32;20204;-65
2022/07/10 05:18:37;;;;;;;0.90;0.90;;;;;;;16.90;88.57;95925.81;4361481;32;20260;-66
2022/07/10 05:21:10;;;;;;;1.43;1.33;;;;;;;16.94;88.05;95926.75;4321979;32;20197;-65
2022/07/10 05:23:40;;;;;;;10.50;1.77;;;;;;;16.96;88.15;95934.47;4336261;32;20193;-65
2022/07/10 05:26:06;;;;;;;1.13;1.13;;;;;;;16.90;88.53;95933.06;4331052;32;20194;-66
2022/07/10 05:28:31;;;;;;;1.00;1.00;;;;;;;17.02;88.12;95928.66;4319711;32;20288;-65
2022/07/10 05:30:58;;;;;;;1.53;1.53;;;;;;;16.95;88.00;95928.34;4344272;32;20235;-66
2022/07/10 05:33:28;;;;;;;2.03;1.87;;;;;;;17.06;87.49;95934.12;4358444;32;20193;-65
2022/07/10 05:36:11;;;;;;;1.13;1.13;;;;;;;17.09;87.17;95934.28;4288783;32;20197;-66
2022/07/10 05:38:38;;;;;;;1.77;1.73;;;;;;;17.09;87.50;95934.28;4345494;32;20242;-66
2022/07/10 05:41:06;;;;;;;3.87;2.90;;;;;;;17.00;86.31;95938.91;4337530;32;20189;-66
2022/07/10 05:43:35;;;;;;;1.60;1.50;;;;;;;16.91;86.69;95932.75;4357631;32;20244;-66
2022/07/10 05:46:05;;;;;;;1.40;1.40;;;;;;;16.88;87.63;95936.06;4337684;32;20307;-66
2022/07/10 05:48:33;;;;;;;1.77;1.70;;;;;;;16.94;87.27;95936.69;4330388;32;20330;-66
2022/07/10 05:50:59;;;;;;;1.87;1.77;;;;;;;16.96;86.79;95946.00;4331736;32;20253;-66
2022/07/10 05:53:27;;;;;;;2.37;2.27;;;;;;;16.84;86.58;95938.59;4334638;32;20185;-65
2022/07/10 05:55:54;;;;;;;1.80;1.73;;;;;;;16.81;86.46;95938.44;4347675;32;20199;-66
2022/07/10 05:58:21;;;;;;;2.63;2.13;;;;;;;16.79;86.63;95930.72;4345052;32;20184;-65
2022/07/10 06:00:48;;;;;;;1.63;1.60;;;;;;;16.94;85.67;95937.47;4346395;32;20229;-65
2022/07/10 06:03:15;;;;;;;1.57;1.57;;;;;;;16.98;85.31;95927.69;4319736;32;20185;-66
2022/07/10 06:05:41;;;;;;;2.67;1.33;;;;;;;17.01;84.31;95929.75;4361637;32;20185;-65
2022/07/10 06:08:08;;;;;;;1.60;1.60;;;;;;;17.08;84.05;95931.91;4343034;32;20284;-66
2022/07/10 06:10:33;;;;;;;1.23;1.23;;;;;;;17.07;83.84;95923.09;4330035;32;20280;-65
2022/07/10 06:12:58;;;;;;;1.30;1.30;;;;;;;17.12;83.96;95933.66;4304745;33;20204;-65
2022/07/10 06:15:25;;;;;;;2.17;2.07;;;;;;;17.18;83.39;95931.59;4313733;32;20209;-66
2022/07/10 06:17:52;;;;;;;1.50;1.40;;;;;;;17.18;83.74;95927.00;4332457;32;20244;-66
2022/07/10 06:20:18;;;;;;;1.43;1.43;;;;;;;17.31;83.21;95935.16;4354931;32;20228;-65
2022/07/10 06:22:44;;;;;;;1.60;1.50;;;;;;;17.28;82.77;95933.13;4334138;32;20190;-66
2022/07/10 06:25:11;;;;;;;1.43;1.40;;;;;;;17.30;82.85;95933.59;4343356;32;20215;-65
2022/07/10 06:27:39;;;;;;;1.53;1.47;;;;;;;17.21;82.63;95944.38;4325987;32;20261;-66
2022/07/10 06:30:06;;;;;;;4.07;2.20;;;;;;;17.15;83.67;95949.09;4365714;32;20189;-66
2022/07/10 06:32:32;;;;;;;1.50;1.50;;;;;;;17.13;83.09;95951.31;4369805;32;20300;-65
2022/07/10 06:34:58;;;;;;;1.20;1.20;;;;;;;17.13;83.43;95948.63;4335590;32;20232;-66
2022/07/10 06:37:25;;;;;;;1.43;1.43;;;;;;;17.14;83.19;95950.22;4358848;32;20196;-66
2022/07/10 06:39:50;;;;;;;1.53;1.50;;;;;;;17.21;82.97;95951.63;4338615;32;20193;-66
2022/07/10 06:42:20;;;;;;;1.23;1.23;;;;;;;17.24;83.12;95945.63;4350921;32;20204;-66
2022/07/10 06:44:46;;;;;;;3.03;2.43;;;;;;;17.23;83.20;95949.41;4370819;32;20215;-65
2022/07/10 06:50:00;;;;;;;1.27;1.27;;;;;;;17.20;83.37;95939.31;4345170;32;20211;-66
2022/07/10 06:52:27;;;;;;;2.37;2.27;;;;;;;17.29;83.10;95943.53;4336154;32;20193;-66
2022/07/10 06:54:54;;;;;;;0.97;0.97;;;;;;;17.37;83.32;95941.94;4329327;32;20237;-66
2022/07/10 06:57:24;;;;;;;1.00;1.00;;;;;;;17.43;82.64;95936.09;4344160;32;20209;-66
2022/07/10 06:59:53;;;;;;;2.00;1.90;;;;;;;17.32;83.65;95942.12;4361343;32;20199;-66
2022/07/10 07:02:21;;;;;;;2.00;1.90;;;;;;;17.32;83.55;95942.91;4339000;32;20236;-66
2022/07/10 07:04:46;;;;;;;1.87;1.77;;;;;;;17.30;83.46;95936.28;4315585;32;20216;-66
2022/07/10 07:07:19;;;;;;;1.60;1.60;;;;;;;17.24;83.78;95941.06;4325189;32;20202;-66
2022/07/10 07:09:45;;;;;;;1.10;1.10;;;;;;;17.36;83.80;95946.53;4335844;32;20240;-66
2022/07/10 07:12:14;;;;;;;2.20;2.10;;;;;;;17.32;83.25;95942.12;4326043;32;20194;-66
2022/07/10 07:14:40;;;;;;;1.90;1.80;;;;;;;17.11;83.74;95948.16;4347165;32;20254;-66
2022/07/10 07:17:08;;;;;;;4.30;2.43;;;;;;;17.27;83.70;95950.31;4322282;32;20196;-66
2022/07/10 07:25:10;;;;;;;1.97;1.87;;;;;;;17.36;82.63;95959.16;4345786;32;20207;-66
2022/07/10 07:27:39;;;;;;;2.00;1.90;;;;;;;17.30;82.62;95963.09;4359421;32;20298;-67
2022/07/10 07:30:25;;;;;;;2.27;1.97;;;;;;;17.28;81.86;95957.25;4323648;32;20201;-66
2022/07/10 07:32:52;;;;;;;1.40;1.40;;;;;;;17.25;82.01;95965.97;4339423;32;20186;-66
2022/07/10 07:35:17;;;;;;;2.00;1.90;;;;;;;17.27;82.64;95972.56;4343965;32;20224;-66
2022/07/10 07:37:50;;;;;;;1.67;1.57;;;;;;;17.23;83.19;95962.81;4378211;32;20238;-66
2022/07/10 07:40:24;;;;;;;1.23;1.23;;;;;;;17.31;81.95;95972.72;4357202;32;20192;-66
2022/07/10 07:42:50;;;;;;;2.13;2.03;;;;;;;17.41;81.88;95983.91;4356756;32;20193;-66
2022/07/10 07:45:16;;;;;;;1.73;1.70;;;;;;;17.45;82.01;95973.34;4308148;32;20242;-66
2022/07/10 07:47:55;;;;;;;1.97;1.70;;;;;;;17.32;81.89;95974.28;4347624;32;20185;-65
2022/07/10 07:50:27;;;;;;;1.13;1.13;;;;;;;17.28;82.28;95971.47;4351840;32;20229;-66
2022/07/10 07:52:54;;;;;;;5.17;2.13;;;;;;;17.28;81.91;95973.34;4309844;32;20189;-66
2022/07/10 07:55:21;;;;;;;2.13;2.03;;;;;;;17.42;80.90;95974.75;4340236;32;20215;-66
2022/07/10 07:57:55;;;;;;;1.80;1.70;;;;;;;17.48;80.77;95973.44;4372383;32;20228;-66
2022/07/10 08:00:24;;;;;;;1.20;1.20;;;;;;;17.71;80.54;95975.94;4346700;32;20303;-66
2022/07/10 08:02:57;;;;;;;1.00;1.00;;;;;;;17.72;78.90;95980.97;4348328;32;20189;-66
2022/07/10 08:05:24;;;;;;;0.83;0.83;;;;;;;17.77;78.50;95980.81;4350712;32;20247;-66
2022/07/10 08:07:56;;;;;;;0.80;0.80;;;;;;;17.62;79.34;95973.25;4359742;32;20254;-66
2022/07/10 08:10:29;;;;;;;1.47;1.43;;;;;;;17.78;79.28;95977.00;4351918;32;20235;-65
2022/07/10 08:12:56;;;;;;;1.23;1.23;;;;;;;17.76;79.50;95975.75;4335266;32;20193;-66
2022/07/10 08:15:27;;;;;;;1.60;1.60;;;;;;;17.66;79.81;95982.28;4345440;32;20306;-65
2022/07/10 08:17:55;;;;;;;0.87;0.87;;;;;;;17.82;78.24;95980.62;4331881;32;20251;-66
2022/07/10 08:20:31;;;;;;;1.40;1.40;;;;;;;17.93;77.64;95972.19;4346532;32;20211;-65
2022/07/10 08:22:58;;;;;;;0.80;0.80;;;;;;;17.84;77.25;95973.03;4295886;32;20255;-66
2022/07/10 08:25:30;;;;;;;1.23;1.23;;;;;;;17.94;77.30;95974.56;4331705;32;20255;-66
2022/07/10 08:28:11;;;;;;;1.10;1.10;;;;;;;17.96;78.42;95976.91;4338364;32;20203;-66
2022/07/10 08:30:41;;;;;;;0.87;0.87;;;;;;;18.18;78.42;95971.28;4305594;32;20192;-66
2022/07/10 08:33:09;;;;;;;0.50;0.50;;;;;;;18.35;76.27;95973.84;4322441;32;20203;-65
2022/07/10 08:35:37;;;;;;;1.30;0.80;;;;;;;18.38;74.99;95965.12;4352886;32;20239;-65
2022/07/10 08:38:05;;;;;;;5.03;1.20;;;;;;;18.42;74.89;95955.31;4347680;32;20189;-65
2022/07/10 08:40:39;;;;;;;0.80;0.80;;;;;;;18.35;72.81;95963.09;4351796;32;20248;-66
2022/07/10 08:43:26;;;;;;;0.50;0.50;;;;;;;18.40;74.72;95954.84;4325949;32;20204;-66
2022/07/10 08:45:54;;;;;;;0.90;0.90;;;;;;;18.44;73.92;95955.78;4326515;32;20197;-66
2022/07/10 08:48:23;;;;;;;1.07;0.97;;;;;;;18.32;73.00;95961.06;4339165;32;20273;-66
2022/07/10 08:50:54;;;;;;;0.60;0.60;;;;;;;18.32;72.48;95968.31;4338762;32;20231;-66
2022/07/10 08:53:31;;;;;;;2.57;0.57;;;;;;;18.28;71.51;95962.06;4326331;32;20291;-66
2022/07/10 08:55:59;;;;;;;0.77;0.77;;;;;;;18.15;71.99;95961.16;4331244;32;20264;-65
2022/07/10 08:58:27;;;;;;;2.00;1.87;;;;;;;18.31;71.58;95969.44;4322755;32;20181;-66
2022/07/10 09:00:53;;;;;;;1.07;1.07;;;;;;;18.44;72.24;95961.16;4341669;32;20200;-66
2022/07/10 09:03:20;;;;;;;0.47;0.47;;;;;;;18.53;72.32;95969.91;4359362;32;20231;-66
2022/07/10 09:05:48;;;;;;;1.33;1.23;;;;;;;18.65;68.46;95963.88;4344663;32;20190;-66
2022/07/10 09:08:32;;;;;;;0.10;0.10;;;;;;;18.62;68.30;95971.78;4331623;32;20204;-66
2022/07/10 09:11:17;;;;;;;0.50;0.50;;;;;;;18.55;69.56;95958.84;4350697;32;20251;-66
2022/07/10 09:13:54;;;;;;;3.90;1.40;;;;;;;18.44;68.65;95965.72;4346893;32;20201;-65
2022/07/10 09:16:35;;;;;;;0.70;0.70;;;;;;;18.40;70.77;95962.91;4333127;32;20203;-66
2022/07/10 09:19:27;;;;;;;0.30;0.30;;;;;;;18.13;70.38;95953.44;4334961;32;20311;-65
2022/07/10 09:21:59;;;;;;;1.43;0.80;;;;;;;18.26;68.83;95965.06;4317304;32;20248;-66
2022/07/10 09:24:34;;;;;;;0.80;0.80;;;;;;;18.41;69.48;95952.94;4344228;32;20205;-65
2022/07/10 09:27:04;;;;;;;0.63;0.63;;;;;;;18.58;68.86;95955.50;4324233;32;20222;-66
2022/07/10 09:29:34;;;;;;;0.60;0.60;;;;;;;18.68;66.78;95951.66;4309408;32;20276;-66
2022/07/10 09:32:05;;;;;;;0.33;0.33;;;;;;;18.84;66.30;95950.72;4326773;32;20201;-65
2022/07/10 09:34:45;;;;;;;0.20;0.20;;;;;;;18.96;66.27;95958.03;4348252;32;20263;-66
2022/07/10 09:37:31;;;;;;;0.60;0.60;;;;;;;18.92;64.77;95954.44;4336943;32;20212;-66
2022/07/10 09:40:09;;;;;;;0.40;0.40;;;;;;;18.98;63.88;95965.78;4321964;32;20198;-66
2022/07/10 09:42:54;;;;;;;0.40;0.40;;;;;;;18.95;63.43;95959.16;4359531;32;20313;-65
2022/07/10 09:45:21;;;;;;;1.07;1.07;;;;;;;18.97;63.91;95959.63;4353037;32;20224;-66
2022/07/10 09:48:04;;;;;;;0.30;0.30;;;;;;;18.96;62.94;95965.31;4326946;32;20232;-66
2022/07/10 09:50:36;;;;;;;0.60;0.60;;;;;;;18.92;61.95;95962.50;4345854;32;20189;-66
2022/07/10 09:53:04;;;;;;;1.40;0.60;;;;;;;18.99;62.46;95968.16;4365462;32;20287;-65
2022/07/10 09:55:33;;;;;;;0.63;0.63;;;;;;;19.06;62.05;95962.25;4348217;32;20241;-66
2022/07/10 09:58:04;;;;;;;0.87;0.80;;;;;;;19.19;62.01;95948.47;4368039;32;20196;-66
2022/07/10 10:00:37;;;;;;;0.57;0.50;;;;;;;19.32;61.98;95948.53;4333489;32;20224;-66
2022/07/10 10:03:08;;;;;;;0.33;0.33;;;;;;;19.37;61.76;95948.28;4310910;32;20269;-65
2022/07/10 10:06:18;;;;;;;0.30;0.30;;;;;;;19.13;61.30;95949.00;4313807;32;20210;-66
2022/07/10 10:09:13;;;;;;;0.20;0.20;;;;;;;19.19;60.96;95945.78;4334429;32;20223;-66
2022/07/10 10:11:43;;;;;;;0.37;0.37;;;;;;;19.20;61.60;95947.38;4319479;32;20197;-66
2022/07/10 10:14:09;;;;;;;2.93;0.63;;;;;;;19.32;59.68;95948.53;4336804;32;20188;-66
2022/07/10 10:17:00;;;;;;;0.77;0.47;;;;;;;19.34;58.56;95946.25;4320628;32;20189;-66
2022/07/10 10:22:20;;;;;;;1.20;0.57;;;;;;;19.58;58.57;95948.25;4344504;32;20245;-65
2022/07/10 10:24:51;;;;;;;1.80;1.07;;;;;;;19.72;57.70;95948.72;4361428;32;20192;-66
2022/07/10 10:27:20;;;;;;;0.40;0.40;;;;;;;19.77;57.56;95946.56;4362526;32;20193;-66
2022/07/10 10:29:49;;;;;;;0.70;0.70;;;;;;;19.83;55.85;95939.84;4293406;32;20236;-66
2022/07/10 10:32:16;;;;;;;0.60;0.60;;;;;;;19.72;56.35;95948.72;4347330;32;20197;-66
2022/07/10 10:34:55;;;;;;;0.33;0.33;;;;;;;19.66;56.44;95948.16;4358190;32;20211;-66
2022/07/10 10:37:42;;;;;;;0.10;0.10;;;;;;;19.46;55.32;95946.31;4358359;32;20263;-66
2022/07/10 10:40:14;;;;;;;0.70;0.70;;;;;;;19.52;55.99;95948.47;4342355;32;20197;-66
2022/07/10 10:42:44;;;;;;;0.27;0.27;;;;;;;19.47;54.68;95942.50;4333888;32;20234;-66
2022/07/10 10:45:34;;;;;;;0.53;0.53;;;;;;;19.58;56.40;95932.88;4358985;32;20235;-65
2022/07/10 10:48:12;;;;;;;0.30;0.30;;;;;;;19.56;54.82;95943.19;4346956;32;20248;-66
2022/07/10 10:50:47;;;;;;;0.10;0.10;;;;;;;19.34;56.63;95936.28;4340298;32;20237;-65
2022/07/10 10:53:22;;;;;;;0.10;0.10;;;;;;;19.27;55.88;95937.97;4365164;32;20184;-65
2022/07/10 10:56:17;;;;;;;0.83;0.83;;;;;;;19.41;54.66;95927.66;4324235;32;20231;-66
2022/07/10 10:58:49;;;;;;;0.33;0.33;;;;;;;19.39;56.83;95936.06;4367072;32;20242;-65
2022/07/10 11:01:25;;;;;;;0.30;0.30;;;;;;;19.41;56.72;95927.66;4342671;32;20181;-65
2022/07/10 11:04:17;;;;;;;1.13;0.83;;;;;;;19.28;57.17;95934.94;4342413;32;20223;-66
2022/07/10 11:06:54;;;;;;;0.30;0.30;;;;;;;19.09;57.49;95935.47;4304098;32;20252;-65
2022/07/10 11:09:44;;;;;;;0.53;0.53;;;;;;;19.07;57.87;95929.63;4342368;32;20196;-66
2022/07/10 11:12:12;;;;;;;0.33;0.33;;;;;;;19.11;57.66;95925.16;4353485;32;20241;-65
2022/07/10 11:14:47;;;;;;;0.20;0.20;;;;;;;19.19;56.58;95916.19;4354291;32;20264;-66
2022/07/10 11:17:13;;;;;;;0.20;0.20;;;;;;;19.27;57.55;95925.31;4350618;32;20195;-65
2022/07/10 11:19:41;;;;;;;0.40;0.40;;;;;;;19.50;56.20;95925.72;4351349;32;20197;-65
2022/07/10 11:22:44;;;;;;;0.40;0.40;;;;;;;19.46;56.13;95925.56;4339556;32;20288;-65
2022/07/10 11:25:35;;;;;;;0.20;0.20;;;;;;;19.39;55.22;95930.69;4314868;32;20201;-66
2022/07/10 11:28:28;;;;;;;0.60;0.40;;;;;;;19.31;55.65;95931.59;4333719;32;20673;-65
2022/07/10 11:30:55;;;;;;;0.40;0.40;;;;;;;19.45;55.39;95931.28;4329689;32;20220;-66
2022/07/10 11:33:22;;;;;;;0.83;0.83;;;;;;;19.41;55.96;95922.28;4333492;32;20228;-65
2022/07/10 11:35:51;;;;;;;0.20;0.20;;;;;;;19.38;55.96;95934.50;4349058;32;20197;-66
2022/07/10 11:38:22;;;;;;;0.30;0.30;;;;;;;19.22;56.81;95926.31;4362530;32;20196;-66
2022/07/10 11:40:49;;;;;;;0.60;0.60;;;;;;;19.25;54.92;95932.91;4381725;32;20228;-65
2022/07/10 11:43:22;;;;;;;0.20;0.20;;;;;;;19.38;54.31;95931.03;4354984;32;20207;-65
2022/07/10 11:45:59;;;;;;;0.50;0.50;;;;;;;19.42;54.17;95919.25;4347760;32;20193;-66
2022/07/10 11:48:25;;;;;;;0.30;0.30;;;;;;;19.51;55.70;95927.28;4362499;32;20233;-66
2022/07/10 11:50:52;;;;;;;0.73;0.63;;;;;;;19.64;55.53;95918.09;4364496;32;20192;-66
2022/07/10 11:53:28;;;;;;;0.30;0.30;;;;;;;19.79;53.76;95922.78;4372819;32;20271;-66
2022/07/10 11:55:54;;;;;;;0.30;0.30;;;;;;;19.85;54.40;95932.22;4348289;32;20207;-65
2022/07/10 11:58:21;;;;;;;0.33;0.33;;;;;;;19.70;53.39;95924.81;4343389;32;20211;-65
2022/07/10 12:01:08;;;;;;;0.33;0.33;;;;;;;19.49;54.99;95926.78;4335878;32;20240;-65
2022/07/10 12:03:34;;;;;;;0.37;0.37;;;;;;;19.54;55.25;95926.59;4356197;32;20207;-65
2022/07/10 12:06:09;;;;;;;0.27;0.27;;;;;;;19.65;55.06;95916.97;4369587;32;20177;-65